createdAt,value
2019-03-06T00:00:37.016Z,22.05
2019-03-06T00:02:38.603Z,22.04
2019-03-06T00:04:40.246Z,22.00
2019-03-06T00:06:42.151Z,21.97
2019-03-06T00:08:43.763Z,21.97
2019-03-06T00:10:45.366Z,21.93
2019-03-06T00:12:46.971Z,21.67
2019-03-06T00:14:48.574Z,21.87
2019-03-06T00:16:50.169Z,21.85
2019-03-06T00:18:51.760Z,21.80
2019-03-06T00:20:53.395Z,21.78
2019-03-06T00:22:55.008Z,21.78
2019-03-06T00:24:56.616Z,21.77
2019-03-06T00:26:58.209Z,21.76
2019-03-06T00:28:59.805Z,21.73
2019-03-06T00:31:01.421Z,21.74
2019-03-06T00:33:03.053Z,21.72
2019-03-06T00:35:04.657Z,21.72
2019-03-06T00:37:06.286Z,21.71
2019-03-06T00:39:07.900Z,21.72
2019-03-06T00:41:10.094Z,21.72
2019-03-06T00:43:11.729Z,21.73
2019-03-06T00:45:13.344Z,21.73
2019-03-06T00:47:14.988Z,21.72
2019-03-06T00:49:16.604Z,21.79
2019-03-06T00:51:18.202Z,21.77
2019-03-06T00:53:19.829Z,21.80
2019-03-06T00:55:21.443Z,21.81
2019-03-06T00:57:23.164Z,21.91
2019-03-06T00:59:24.823Z,21.97
2019-03-06T01:01:26.440Z,22.02
2019-03-06T01:03:28.065Z,22.00
2019-03-06T01:05:29.647Z,22.01
2019-03-06T01:07:31.268Z,22.03
2019-03-06T01:09:32.869Z,22.03
2019-03-06T01:11:34.481Z,22.05
2019-03-06T01:13:36.106Z,22.02
2019-03-06T01:15:37.720Z,22.01
2019-03-06T01:17:39.319Z,22.00
2019-03-06T01:19:40.974Z,21.95
2019-03-06T01:21:42.576Z,21.95
2019-03-06T01:23:44.209Z,21.92
2019-03-06T01:25:45.817Z,21.90
2019-03-06T01:27:47.400Z,21.89
2019-03-06T01:29:49.055Z,21.87
2019-03-06T01:31:50.654Z,21.88
2019-03-06T01:33:52.292Z,21.85
2019-03-06T01:35:57.781Z,21.81
2019-03-06T01:38:05.208Z,21.80
2019-03-06T01:40:07.287Z,21.79
2019-03-06T01:42:09.804Z,21.77
2019-03-06T01:44:12.011Z,21.77
2019-03-06T01:46:13.628Z,21.75
2019-03-06T01:48:15.233Z,21.73
2019-03-06T01:50:16.851Z,21.74
2019-03-06T01:52:18.500Z,21.76
2019-03-06T01:54:20.094Z,21.77
2019-03-06T01:56:21.718Z,21.77
2019-03-06T01:58:23.323Z,21.81
2019-03-06T02:00:24.926Z,21.84
2019-03-06T02:02:26.622Z,21.85
2019-03-06T02:04:28.213Z,21.83
2019-03-06T02:06:29.832Z,21.80
2019-03-06T02:08:31.434Z,21.80
2019-03-06T02:10:33.043Z,21.80
2019-03-06T02:12:34.729Z,21.81
2019-03-06T02:14:36.345Z,21.77
2019-03-06T02:16:38.010Z,21.78
2019-03-06T02:18:39.600Z,21.81
2019-03-06T02:20:41.205Z,21.80
2019-03-06T02:22:42.798Z,21.69
2019-03-06T02:24:44.476Z,21.80
2019-03-06T02:26:46.107Z,21.85
2019-03-06T02:28:47.710Z,21.87
2019-03-06T02:30:49.309Z,21.87
2019-03-06T02:32:50.918Z,21.90
2019-03-06T02:34:52.535Z,21.82
2019-03-06T02:36:54.142Z,21.92
2019-03-06T02:38:55.786Z,21.92
2019-03-06T02:40:57.398Z,21.93
2019-03-06T02:42:58.994Z,21.88
2019-03-06T02:45:00.630Z,21.90
2019-03-06T02:47:02.242Z,21.89
2019-03-06T02:49:03.883Z,21.94
2019-03-06T02:51:05.526Z,21.94
2019-03-06T02:53:07.175Z,21.91
2019-03-06T02:55:08.789Z,21.92
2019-03-06T02:57:10.390Z,21.93
2019-03-06T02:59:12.031Z,21.91
2019-03-06T03:01:29.246Z,21.87
2019-03-06T03:03:31.789Z,21.92
2019-03-06T03:05:39.089Z,21.89
2019-03-06T03:07:40.694Z,21.91
2019-03-06T03:09:42.320Z,21.87
2019-03-06T03:11:43.922Z,21.85
2019-03-06T03:13:45.521Z,21.89
2019-03-06T03:15:47.122Z,21.89
2019-03-06T03:17:48.744Z,21.87
2019-03-06T03:19:50.380Z,21.84
2019-03-06T03:21:51.985Z,21.83
2019-03-06T03:23:53.635Z,21.83
2019-03-06T03:25:55.272Z,21.78
2019-03-06T03:27:56.881Z,21.78
2019-03-06T03:29:58.526Z,21.77
2019-03-06T03:32:00.150Z,21.74
2019-03-06T03:34:01.766Z,21.74
2019-03-06T03:36:03.369Z,21.74
2019-03-06T03:38:04.966Z,21.73
2019-03-06T03:40:06.567Z,21.73
2019-03-06T03:42:08.165Z,21.61
2019-03-06T03:44:09.763Z,21.70
2019-03-06T03:46:11.370Z,21.73
2019-03-06T03:48:12.969Z,21.74
2019-03-06T03:50:14.575Z,21.73
2019-03-06T03:52:16.284Z,21.73
2019-03-06T03:54:17.871Z,21.73
2019-03-06T03:56:19.519Z,21.75
2019-03-06T03:58:21.126Z,21.76
2019-03-06T04:00:22.773Z,21.72
2019-03-06T04:02:24.453Z,21.75
2019-03-06T04:04:26.057Z,21.76
2019-03-06T04:06:27.705Z,21.79
2019-03-06T04:08:29.323Z,21.82
2019-03-06T04:10:30.926Z,21.85
2019-03-06T04:12:34.266Z,21.87
2019-03-06T04:14:34.242Z,21.90
2019-03-06T04:16:35.893Z,21.91
2019-03-06T04:18:37.494Z,21.92
2019-03-06T04:20:39.091Z,21.92
2019-03-06T04:22:40.734Z,21.94
2019-03-06T04:24:42.348Z,21.98
2019-03-06T04:26:44.008Z,21.96
2019-03-06T04:28:45.632Z,21.91
2019-03-06T04:30:47.307Z,21.86
2019-03-06T04:32:48.941Z,21.84
2019-03-06T04:34:50.556Z,21.84
2019-03-06T04:36:52.162Z,21.79
2019-03-06T04:38:53.790Z,21.78
2019-03-06T04:40:55.436Z,21.72
2019-03-06T04:42:57.060Z,21.64
2019-03-06T04:44:58.653Z,21.62
2019-03-06T04:47:00.255Z,21.55
2019-03-06T04:49:01.867Z,21.48
2019-03-06T04:51:03.475Z,21.45
2019-03-06T04:53:05.086Z,21.42
2019-03-06T04:55:06.704Z,21.39
2019-03-06T04:57:08.308Z,21.39
2019-03-06T04:59:09.938Z,21.38
2019-03-06T05:01:11.542Z,21.42
2019-03-06T05:03:13.148Z,21.41
2019-03-06T05:05:14.787Z,21.48
2019-03-06T05:07:16.393Z,21.53
2019-03-06T05:09:18.031Z,21.62
2019-03-06T05:11:19.649Z,21.69
2019-03-06T05:13:21.267Z,21.75
2019-03-06T05:15:23.612Z,21.79
2019-03-06T05:17:25.936Z,21.77
2019-03-06T05:19:27.554Z,21.73
2019-03-06T05:21:29.173Z,21.71
2019-03-06T05:23:30.784Z,21.67
2019-03-06T05:25:32.542Z,21.67
2019-03-06T05:27:34.153Z,21.70
2019-03-06T05:29:35.820Z,21.74
2019-03-06T05:31:37.425Z,21.80
2019-03-06T05:33:39.051Z,21.87
2019-03-06T05:35:40.646Z,21.90
2019-03-06T05:37:42.252Z,21.93
2019-03-06T05:39:43.919Z,21.94
2019-03-06T05:41:45.531Z,21.97
2019-03-06T05:43:47.141Z,21.99
2019-03-06T05:45:48.793Z,22.02
2019-03-06T05:47:50.412Z,22.04
2019-03-06T05:49:52.075Z,22.03
2019-03-06T05:51:53.682Z,22.05
2019-03-06T05:53:55.291Z,22.09
2019-03-06T05:55:56.893Z,22.07
2019-03-06T05:57:58.489Z,22.08
2019-03-06T06:00:00.318Z,22.08
2019-03-06T06:02:01.794Z,22.09
2019-03-06T06:04:03.398Z,22.05
2019-03-06T06:06:04.998Z,22.02
2019-03-06T06:08:06.620Z,22.00
2019-03-06T06:10:08.268Z,21.98
2019-03-06T06:12:09.885Z,21.92
2019-03-06T06:14:11.495Z,21.90
2019-03-06T06:16:13.099Z,21.85
2019-03-06T06:18:14.712Z,21.78
2019-03-06T06:20:16.365Z,21.71
2019-03-06T06:22:20.617Z,21.67
2019-03-06T06:24:22.249Z,21.65
2019-03-06T06:26:23.850Z,21.63
2019-03-06T06:28:25.500Z,21.58
2019-03-06T06:30:27.161Z,21.57
2019-03-06T06:32:28.776Z,21.57
2019-03-06T06:34:30.367Z,21.53
2019-03-06T06:36:31.969Z,21.52
2019-03-06T06:38:33.609Z,21.53
2019-03-06T06:40:35.804Z,21.53
2019-03-06T06:42:36.936Z,21.53
2019-03-06T06:44:38.534Z,21.51
2019-03-06T06:46:40.149Z,21.54
2019-03-06T06:48:41.760Z,21.34
2019-03-06T06:50:43.446Z,21.65
2019-03-06T06:52:45.049Z,21.72
2019-03-06T06:54:46.668Z,21.79
2019-03-06T06:56:48.333Z,21.90
2019-03-06T06:58:49.940Z,21.83
2019-03-06T07:00:52.227Z,21.96
2019-03-06T07:02:59.470Z,21.99
2019-03-06T07:05:16.697Z,22.05
2019-03-06T07:07:24.110Z,21.88
2019-03-06T07:09:44.480Z,22.11
2019-03-06T07:12:01.086Z,22.12
2019-03-06T07:14:06.173Z,22.17
2019-03-06T07:16:13.368Z,22.04
2019-03-06T07:18:20.590Z,22.15
2019-03-06T07:20:24.941Z,22.16
2019-03-06T07:22:45.315Z,22.16
2019-03-06T07:24:53.552Z,22.10
2019-03-06T07:26:58.606Z,22.10
2019-03-06T07:29:02.951Z,22.01
2019-03-06T07:31:08.966Z,21.99
2019-03-06T07:33:13.198Z,21.95
2019-03-06T07:35:16.206Z,21.90
2019-03-06T07:37:17.811Z,21.80
2019-03-06T07:39:21.035Z,21.77
2019-03-06T07:41:22.629Z,21.70
2019-03-06T07:43:26.737Z,21.55
2019-03-06T07:45:28.329Z,21.63
2019-03-06T07:47:34.446Z,21.79
2019-03-06T07:49:54.714Z,21.71
2019-03-06T07:52:06.296Z,21.48
2019-03-06T07:54:25.621Z,21.36
2019-03-06T07:56:30.693Z,21.29
2019-03-06T07:58:32.290Z,21.60
2019-03-06T08:00:33.894Z,21.58
2019-03-06T08:02:35.574Z,21.36
2019-03-06T08:04:37.211Z,21.32
2019-03-06T08:06:38.824Z,21.34
2019-03-06T08:08:40.427Z,21.40
2019-03-06T08:10:42.057Z,21.45
2019-03-06T08:12:43.711Z,21.57
2019-03-06T08:14:51.017Z,21.70
2019-03-06T08:16:54.419Z,21.86
2019-03-06T08:19:11.749Z,21.99
2019-03-06T08:21:14.178Z,22.06
2019-03-06T08:23:30.644Z,22.35
2019-03-06T08:25:37.955Z,22.39
2019-03-06T08:27:39.544Z,22.62
2019-03-06T08:29:41.145Z,22.70
2019-03-06T08:31:42.736Z,22.77
2019-03-06T08:33:44.333Z,22.81
2019-03-06T08:35:45.975Z,22.82
2019-03-06T08:37:47.584Z,22.85
2019-03-06T08:39:49.186Z,22.88
2019-03-06T08:41:50.836Z,22.90
2019-03-06T08:43:52.459Z,22.89
2019-03-06T08:45:59.044Z,22.89
2019-03-06T08:48:04.747Z,22.82
2019-03-06T08:50:07.290Z,22.76
2019-03-06T08:52:12.649Z,22.73
2019-03-06T08:54:31.136Z,22.69
2019-03-06T08:56:33.228Z,22.65
2019-03-06T08:58:36.308Z,22.62
2019-03-06T09:00:51.758Z,22.58
2019-03-06T09:02:54.196Z,22.51
2019-03-06T09:04:59.706Z,22.31
2019-03-06T09:07:05.198Z,22.09
2019-03-06T09:09:11.565Z,21.94
2019-03-06T09:11:23.078Z,21.88
2019-03-06T09:13:27.951Z,22.00
2019-03-06T09:15:47.847Z,21.97
2019-03-06T09:18:09.028Z,22.03
2019-03-06T09:20:11.679Z,22.05
2019-03-06T09:22:33.701Z,22.04
2019-03-06T09:24:42.078Z,22.05
2019-03-06T09:26:46.185Z,22.05
2019-03-06T09:28:49.857Z,22.02
2019-03-06T09:30:51.450Z,22.00
2019-03-06T09:32:54.878Z,21.98
2019-03-06T09:35:00.017Z,21.96
2019-03-06T09:37:03.516Z,21.92
2019-03-06T09:39:06.572Z,21.93
2019-03-06T09:41:13.883Z,21.94
2019-03-06T09:43:15.585Z,22.01
2019-03-06T09:45:18.026Z,22.11
2019-03-06T09:47:20.405Z,22.18
2019-03-06T09:49:22.014Z,22.32
2019-03-06T09:51:26.470Z,22.32
2019-03-06T09:53:29.678Z,22.55
2019-03-06T09:55:46.966Z,22.62
2019-03-06T09:57:49.425Z,22.64
2019-03-06T09:59:51.826Z,22.67
2019-03-06T10:02:07.101Z,22.76
2019-03-06T10:04:15.745Z,22.82
2019-03-06T10:06:22.284Z,22.87
2019-03-06T10:08:26.046Z,22.88
2019-03-06T10:10:46.386Z,22.90
2019-03-06T10:12:47.886Z,22.88
2019-03-06T10:14:53.377Z,22.76
2019-03-06T10:16:57.774Z,22.84
2019-03-06T10:18:59.378Z,22.81
2019-03-06T10:21:01.016Z,22.77
2019-03-06T10:23:02.663Z,22.70
2019-03-06T10:25:04.330Z,22.67
2019-03-06T10:27:06.225Z,22.62
2019-03-06T10:29:07.885Z,22.59
2019-03-06T10:31:09.496Z,22.43
2019-03-06T10:33:11.114Z,22.50
2019-03-06T10:35:12.738Z,22.48
2019-03-06T10:37:14.369Z,22.49
2019-03-06T10:39:16.047Z,22.46
2019-03-06T10:41:17.666Z,22.43
2019-03-06T10:43:19.302Z,22.43
2019-03-06T10:45:20.968Z,22.39
2019-03-06T10:47:22.640Z,22.35
2019-03-06T10:49:24.256Z,22.30
2019-03-06T10:51:25.868Z,22.28
2019-03-06T10:53:27.469Z,22.23
2019-03-06T10:55:29.123Z,22.19
2019-03-06T10:57:30.758Z,22.17
2019-03-06T10:59:32.386Z,22.16
2019-03-06T11:01:34.044Z,22.11
2019-03-06T11:03:36.314Z,22.08
2019-03-06T11:05:38.147Z,22.06
2019-03-06T11:07:39.780Z,22.03
2019-03-06T11:09:41.430Z,22.06
2019-03-06T11:11:43.064Z,22.10
2019-03-06T11:13:44.668Z,22.10
2019-03-06T11:15:55.191Z,22.12
2019-03-06T11:17:47.985Z,22.17
2019-03-06T11:19:49.634Z,22.24
2019-03-06T11:21:51.254Z,22.31
2019-03-06T11:23:53.238Z,22.41
2019-03-06T11:25:54.841Z,22.47
2019-03-06T11:27:56.480Z,22.49
2019-03-06T11:29:58.264Z,22.44
2019-03-06T11:31:59.791Z,22.59
2019-03-06T11:34:01.448Z,22.66
2019-03-06T11:36:03.084Z,22.73
2019-03-06T11:38:04.760Z,22.77
2019-03-06T11:40:06.729Z,22.65
2019-03-06T11:42:08.391Z,22.82
2019-03-06T11:44:09.993Z,22.86
2019-03-06T11:46:11.600Z,22.67
2019-03-06T11:48:13.191Z,22.89
2019-03-06T11:50:14.829Z,22.86
2019-03-06T11:52:16.456Z,22.87
2019-03-06T11:54:18.076Z,22.86
2019-03-06T11:56:19.686Z,22.83
2019-03-06T11:58:21.292Z,22.80
2019-03-06T12:00:32.825Z,22.78
2019-03-06T12:02:34.450Z,22.77
2019-03-06T12:04:36.067Z,22.73
2019-03-06T12:06:37.681Z,22.67
2019-03-06T12:08:45.520Z,22.58
2019-03-06T12:10:40.942Z,22.54
2019-03-06T12:12:42.545Z,22.51
2019-03-06T12:14:44.155Z,22.44
2019-03-06T12:16:46.206Z,22.42
2019-03-06T12:18:47.827Z,22.38
2019-03-06T12:20:49.458Z,22.36
2019-03-06T12:22:52.510Z,22.33
2019-03-06T12:24:54.263Z,22.28
2019-03-06T12:26:56.363Z,22.27
2019-03-06T12:28:58.700Z,22.26
2019-03-06T12:31:00.306Z,22.23
2019-03-06T12:33:01.937Z,22.19
2019-03-06T12:35:03.542Z,22.20
2019-03-06T12:37:08.988Z,22.21
2019-03-06T12:39:10.657Z,22.20
2019-03-06T12:41:12.773Z,22.14
2019-03-06T12:43:14.045Z,22.21
2019-03-06T12:45:15.671Z,22.17
2019-03-06T12:47:17.626Z,22.12
2019-03-06T12:49:19.229Z,22.10
2019-03-06T12:51:20.838Z,22.05
2019-03-06T12:53:22.489Z,22.02
2019-03-06T12:55:24.151Z,22.01
2019-03-06T12:57:25.786Z,21.90
2019-03-06T12:59:27.395Z,22.06
2019-03-06T13:01:29.027Z,22.06
2019-03-06T13:03:30.670Z,22.12
2019-03-06T13:05:32.344Z,22.11
2019-03-06T13:07:34.126Z,22.15
2019-03-06T13:09:37.621Z,22.17
2019-03-06T13:11:38.209Z,22.03
2019-03-06T13:13:41.312Z,22.29
2019-03-06T13:15:42.944Z,22.34
2019-03-06T13:17:44.571Z,22.37
2019-03-06T13:19:46.181Z,22.40
2019-03-06T13:21:47.842Z,22.46
2019-03-06T13:23:49.440Z,22.49
2019-03-06T13:25:51.050Z,22.61
2019-03-06T13:27:55.102Z,22.77
2019-03-06T13:29:54.962Z,22.92
2019-03-06T13:31:56.785Z,22.98
2019-03-06T13:34:02.122Z,23.00
2019-03-06T13:36:03.766Z,23.02
2019-03-06T13:38:05.400Z,22.99
2019-03-06T13:40:07.090Z,22.94
2019-03-06T13:42:08.702Z,22.78
2019-03-06T13:44:10.473Z,22.82
2019-03-06T13:46:12.101Z,22.72
2019-03-06T13:48:13.707Z,22.61
2019-03-06T13:50:15.493Z,22.49
2019-03-06T13:52:17.200Z,22.48
2019-03-06T13:54:20.059Z,22.51
2019-03-06T13:56:23.953Z,22.53
2019-03-06T13:58:25.570Z,22.50
2019-03-06T14:00:27.184Z,22.49
2019-03-06T14:02:28.775Z,22.47
2019-03-06T14:04:31.036Z,22.41
2019-03-06T14:06:32.019Z,22.33
2019-03-06T14:08:37.260Z,22.31
2019-03-06T14:10:38.862Z,22.19
2019-03-06T14:12:40.506Z,22.80
2019-03-06T14:14:42.166Z,22.99
2019-03-06T14:16:43.792Z,22.88
2019-03-06T14:18:45.424Z,23.03
2019-03-06T14:20:47.431Z,23.02
2019-03-06T14:22:49.046Z,22.84
2019-03-06T14:24:50.713Z,22.92
2019-03-06T14:26:52.742Z,22.77
2019-03-06T14:28:54.368Z,22.70
2019-03-06T14:30:56.036Z,22.89
2019-03-06T14:32:57.656Z,23.10
2019-03-06T14:34:59.512Z,23.11
2019-03-06T14:37:01.163Z,22.71
2019-03-06T14:39:02.890Z,22.34
2019-03-06T14:41:04.556Z,22.57
2019-03-06T14:43:06.179Z,22.77
2019-03-06T14:45:07.796Z,22.48
2019-03-06T14:47:09.409Z,22.39
2019-03-06T14:49:11.072Z,22.68
2019-03-06T14:51:17.708Z,22.73
2019-03-06T14:53:19.807Z,23.10
2019-03-06T14:55:21.417Z,23.20
2019-03-06T14:57:23.024Z,23.29
2019-03-06T14:59:24.699Z,23.34
2019-03-06T15:01:26.313Z,23.18
2019-03-06T15:03:28.294Z,22.87
2019-03-06T15:05:29.918Z,22.78
2019-03-06T15:07:31.535Z,22.77
2019-03-06T15:09:33.150Z,22.77
2019-03-06T15:11:34.770Z,22.71
2019-03-06T15:13:36.386Z,22.70
2019-03-06T15:15:38.008Z,22.69
2019-03-06T15:17:39.729Z,22.70
2019-03-06T15:19:41.633Z,22.71
2019-03-06T15:21:43.249Z,22.66
2019-03-06T15:23:44.910Z,22.64
2019-03-06T15:25:46.561Z,22.62
2019-03-06T15:27:48.165Z,22.54
2019-03-06T15:29:49.786Z,22.48
2019-03-06T15:31:51.663Z,22.54
2019-03-06T15:33:53.409Z,22.49
2019-03-06T15:35:55.025Z,22.48
2019-03-06T15:37:56.681Z,22.47
2019-03-06T15:39:58.301Z,22.37
2019-03-06T15:42:01.459Z,22.30
2019-03-06T15:44:01.597Z,22.23
2019-03-06T15:46:03.560Z,22.18
2019-03-06T15:48:05.201Z,21.92
2019-03-06T15:50:06.835Z,22.11
2019-03-06T15:52:08.541Z,22.07
2019-03-06T15:54:10.170Z,22.05
2019-03-06T15:56:11.776Z,22.05
2019-03-06T15:58:13.443Z,22.20
2019-03-06T16:00:15.070Z,22.06
2019-03-06T16:02:16.780Z,21.98
2019-03-06T16:04:18.394Z,21.92
2019-03-06T16:06:20.709Z,21.85
2019-03-06T16:08:21.658Z,21.81
2019-03-06T16:10:23.283Z,21.85
2019-03-06T16:12:25.786Z,21.82
2019-03-06T16:14:27.425Z,21.86
2019-03-06T16:16:29.038Z,21.83
2019-03-06T16:18:30.674Z,21.87
2019-03-06T16:20:32.286Z,21.87
2019-03-06T16:22:33.880Z,21.87
2019-03-06T16:24:37.499Z,21.85
2019-03-06T16:26:37.185Z,21.89
2019-03-06T16:28:38.886Z,21.90
2019-03-06T16:30:40.502Z,21.90
2019-03-06T16:32:42.118Z,21.91
2019-03-06T16:34:43.776Z,21.93
2019-03-06T16:36:45.385Z,21.95
2019-03-06T16:38:47.040Z,21.95
2019-03-06T16:40:48.736Z,21.96
2019-03-06T16:42:51.034Z,21.95
2019-03-06T16:44:52.650Z,21.99
2019-03-06T16:46:54.320Z,22.01
2019-03-06T16:48:56.022Z,22.00
2019-03-06T16:50:57.641Z,22.00
2019-03-06T16:52:59.584Z,22.01
2019-03-06T16:55:01.697Z,21.92
2019-03-06T16:57:03.391Z,21.99
2019-03-06T16:59:05.034Z,21.96
2019-03-06T17:01:06.657Z,21.97
2019-03-06T17:03:08.302Z,21.97
2019-03-06T17:05:09.956Z,21.95
2019-03-06T17:07:12.277Z,21.93
2019-03-06T17:09:13.972Z,21.87
2019-03-06T17:11:15.601Z,21.83
2019-03-06T17:13:17.253Z,21.81
2019-03-06T17:15:18.877Z,21.77
2019-03-06T17:17:20.559Z,21.75
2019-03-06T17:19:22.216Z,21.72
2019-03-06T17:21:23.824Z,21.70
2019-03-06T17:23:25.938Z,21.66
2019-03-06T17:25:28.474Z,21.68
2019-03-06T17:27:29.938Z,21.65
2019-03-06T17:29:31.587Z,21.59
2019-03-06T17:31:33.242Z,21.60
2019-03-06T17:33:34.860Z,21.58
2019-03-06T17:35:36.488Z,21.54
2019-03-06T17:37:38.117Z,21.52
2019-03-06T17:39:39.757Z,21.52
2019-03-06T17:41:41.441Z,21.51
2019-03-06T17:43:43.049Z,21.38
2019-03-06T17:45:44.656Z,21.48
2019-03-06T17:47:46.282Z,21.44
2019-03-06T17:49:47.959Z,21.43
2019-03-06T17:51:49.577Z,21.40
2019-03-06T17:53:51.182Z,21.40
2019-03-06T17:55:52.856Z,21.40
2019-03-06T17:57:54.535Z,21.38
2019-03-06T17:59:56.155Z,21.39
2019-03-06T18:01:58.045Z,21.38
2019-03-06T18:04:01.486Z,21.41
2019-03-06T18:06:03.137Z,21.43
2019-03-06T18:08:04.755Z,21.48
2019-03-06T18:10:06.390Z,21.50
2019-03-06T18:12:08.003Z,21.54
2019-03-06T18:14:09.654Z,21.59
2019-03-06T18:16:11.306Z,21.60
2019-03-06T18:18:12.926Z,21.61
2019-03-06T18:20:14.548Z,21.63
2019-03-06T18:22:16.186Z,21.64
2019-03-06T18:24:17.849Z,21.65
2019-03-06T18:26:19.462Z,21.64
2019-03-06T18:28:21.065Z,21.63
2019-03-06T18:30:22.677Z,21.64
2019-03-06T18:32:24.433Z,21.65
2019-03-06T18:34:26.203Z,21.65
2019-03-06T18:36:27.817Z,21.64
2019-03-06T18:38:30.275Z,21.65
2019-03-06T18:40:31.904Z,21.65
2019-03-06T18:42:34.038Z,21.62
2019-03-06T18:44:35.652Z,21.61
2019-03-06T18:46:37.278Z,21.57
2019-03-06T18:48:39.126Z,21.47
2019-03-06T18:50:40.778Z,21.02
2019-03-06T18:52:42.399Z,20.67
2019-03-06T18:54:44.079Z,20.46
2019-03-06T18:56:45.754Z,20.68
2019-03-06T18:58:47.361Z,20.58
2019-03-06T19:00:49.044Z,20.85
2019-03-06T19:02:50.721Z,21.06
2019-03-06T19:04:52.508Z,21.24
2019-03-06T19:06:54.129Z,21.36
2019-03-06T19:08:55.782Z,21.45
2019-03-06T19:10:57.404Z,21.54
2019-03-06T19:12:59.047Z,21.60
2019-03-06T19:15:00.727Z,21.67
2019-03-06T19:17:02.400Z,21.71
2019-03-06T19:19:04.021Z,21.74
2019-03-06T19:21:05.903Z,21.77
2019-03-06T19:23:07.542Z,21.77
2019-03-06T19:25:09.880Z,21.80
2019-03-06T19:27:11.480Z,21.84
2019-03-06T19:29:13.094Z,21.83
2019-03-06T19:31:14.779Z,21.86
2019-03-06T19:33:16.413Z,21.85
2019-03-06T19:35:18.346Z,21.87
2019-03-06T19:37:20.091Z,21.86
2019-03-06T19:39:22.404Z,21.86
2019-03-06T19:41:23.431Z,21.88
2019-03-06T19:43:25.077Z,21.85
2019-03-06T19:45:26.738Z,21.85
2019-03-06T19:47:28.407Z,21.86
2019-03-06T19:49:30.033Z,21.84
2019-03-06T19:51:31.702Z,21.83
2019-03-06T19:53:33.319Z,21.80
2019-03-06T19:55:35.766Z,21.78
2019-03-06T19:57:37.368Z,21.77
2019-03-06T19:59:38.982Z,21.76
2019-03-06T20:01:40.599Z,21.73
2019-03-06T20:03:42.291Z,21.70
2019-03-06T20:05:43.938Z,21.69
2019-03-06T20:07:47.133Z,21.68
2019-03-06T20:09:47.488Z,21.69
2019-03-06T20:11:49.106Z,22.01
2019-03-06T20:13:50.712Z,22.43
2019-03-06T20:15:52.331Z,22.81
2019-03-06T20:17:54.004Z,22.95
2019-03-06T20:19:55.656Z,23.16
2019-03-06T20:21:57.286Z,22.90
2019-03-06T20:23:59.381Z,22.81
2019-03-06T20:26:01.054Z,22.73
2019-03-06T20:28:02.693Z,22.89
2019-03-06T20:30:04.342Z,22.95
2019-03-06T20:32:05.976Z,22.79
2019-03-06T20:34:08.211Z,22.89
2019-03-06T20:36:09.844Z,22.91
2019-03-06T20:38:11.459Z,22.73
2019-03-06T20:40:13.092Z,23.16
2019-03-06T20:42:14.697Z,23.15
2019-03-06T20:44:17.799Z,23.30
2019-03-06T20:46:18.004Z,23.02
2019-03-06T20:48:19.647Z,23.12
2019-03-06T20:50:21.311Z,23.02
2019-03-06T20:52:23.091Z,22.81
2019-03-06T20:54:27.348Z,22.64
2019-03-06T20:56:27.561Z,22.57
2019-03-06T20:58:29.911Z,22.50
2019-03-06T21:00:31.533Z,22.52
2019-03-06T21:02:33.204Z,22.77
2019-03-06T21:04:34.852Z,23.09
2019-03-06T21:06:36.531Z,22.92
2019-03-06T21:08:38.118Z,22.64
2019-03-06T21:10:39.742Z,22.55
2019-03-06T21:12:41.358Z,22.50
2019-03-06T21:14:43.015Z,22.66
2019-03-06T21:16:45.028Z,22.36
2019-03-06T21:18:46.655Z,22.44
2019-03-06T21:20:48.339Z,22.62
2019-03-06T21:22:50.065Z,22.52
2019-03-06T21:24:51.674Z,23.05
2019-03-06T21:27:03.204Z,22.84
2019-03-06T21:29:04.868Z,22.60
2019-03-06T21:31:06.492Z,22.54
2019-03-06T21:33:08.160Z,22.97
2019-03-06T21:35:09.842Z,23.19
2019-03-06T21:37:11.460Z,22.80
2019-03-06T21:39:13.090Z,22.90
2019-03-06T21:41:14.775Z,22.71
2019-03-06T21:43:16.433Z,22.63
2019-03-06T21:45:18.044Z,22.60
2019-03-06T21:47:20.119Z,22.51
2019-03-06T21:49:21.744Z,22.57
2019-03-06T21:51:23.380Z,22.56
2019-03-06T21:53:25.020Z,22.52
2019-03-06T21:55:26.656Z,22.62
2019-03-06T21:57:28.283Z,22.64
2019-03-06T21:59:29.936Z,22.64
2019-03-06T22:01:31.581Z,22.62
2019-03-06T22:03:33.223Z,22.63
2019-03-06T22:05:34.839Z,22.62
2019-03-06T22:07:36.509Z,22.67
2019-03-06T22:09:38.134Z,22.66
2019-03-06T22:11:39.746Z,22.71
2019-03-06T22:13:41.353Z,22.66
2019-03-06T22:15:42.998Z,22.50
2019-03-06T22:17:44.602Z,22.28
2019-03-06T22:19:46.263Z,22.11
2019-03-06T22:21:47.886Z,22.27
2019-03-06T22:23:49.497Z,22.45
2019-03-06T22:25:51.094Z,22.59
2019-03-06T22:27:52.732Z,22.74
2019-03-06T22:29:54.394Z,22.80
2019-03-06T22:31:56.022Z,22.86
2019-03-06T22:33:57.703Z,22.88
2019-03-06T22:35:59.319Z,23.03
2019-03-06T22:38:00.929Z,22.84
2019-03-06T22:40:02.578Z,22.48
2019-03-06T22:42:04.234Z,22.23
2019-03-06T22:44:05.847Z,22.07
2019-03-06T22:46:07.483Z,21.96
2019-03-06T22:48:09.088Z,21.87
2019-03-06T22:50:10.708Z,21.80
2019-03-06T22:52:12.330Z,21.75
2019-03-06T22:54:13.960Z,21.71
2019-03-06T22:56:15.581Z,21.68
2019-03-06T22:58:17.198Z,21.65
2019-03-06T23:00:18.902Z,21.63
2019-03-06T23:02:20.512Z,21.62
2019-03-06T23:04:22.189Z,21.62
2019-03-06T23:06:23.807Z,21.67
2019-03-06T23:08:25.467Z,21.69
2019-03-06T23:10:27.127Z,21.69
2019-03-06T23:12:28.759Z,21.68
2019-03-06T23:14:30.414Z,21.71
2019-03-06T23:16:32.021Z,21.72
2019-03-06T23:18:33.635Z,21.74
2019-03-06T23:20:35.264Z,21.76
2019-03-06T23:22:36.885Z,21.74
2019-03-06T23:24:38.570Z,21.76
2019-03-06T23:26:43.109Z,21.77
2019-03-06T23:28:41.880Z,21.78
2019-03-06T23:30:43.522Z,21.79
2019-03-06T23:32:45.160Z,21.78
2019-03-06T23:34:46.794Z,21.77
2019-03-06T23:36:48.416Z,21.77
2019-03-06T23:38:50.089Z,21.78
2019-03-06T23:40:51.724Z,21.77
2019-03-06T23:42:53.355Z,21.77
2019-03-06T23:44:55.064Z,21.77
2019-03-06T23:46:56.681Z,21.77
2019-03-06T23:48:58.338Z,21.76
2019-03-06T23:50:59.935Z,21.78
2019-03-06T23:53:02.036Z,21.79
2019-03-06T23:55:03.707Z,21.77
2019-03-06T23:57:05.336Z,21.76
2019-03-06T23:59:06.977Z,21.74
